This is the latest recevied weather packets stored in our database for station/object HA2SKA-1. If no packets are shown the sender has not sent any weather packets the latest 10 day(s).
| Time | Temp. | Humidity | Pressure | Rain* | Wind** | Luminosity | Snow |
|---|---|---|---|---|---|---|---|
| 1777557658 | 15° C | 23% | 1028.4 hPa | - | - | - | - |
| 1777556758 | 14.44° C | 25% | 1028.5 hPa | - | - | - | - |
| 1777555858 | 15° C | 24% | 1028.8 hPa | - | - | - | - |
| 1777554958 | 14.44° C | 26% | 1028.8 hPa | - | - | - | - |
| 1777554057 | 15° C | 27% | 1028.9 hPa | - | - | - | - |
| 1777553157 | 13.89° C | 27% | 1029.1 hPa | - | - | - | - |
| 1777552257 | 14.44° C | 26% | 1029.2 hPa | - | - | - | - |
| 1777551357 | 13.89° C | 27% | 1029.3 hPa | - | - | - | - |
| 1777550457 | 14.44° C | 27% | 1029.5 hPa | - | - | - | - |
| 1777549557 | 14.44° C | 26% | 1029.6 hPa | - | - | - | - |
| 1777547765 | 13.33° C | 27% | 1029.9 hPa | - | - | - | - |
| 1777546865 | 13.33° C | 27% | 1029.7 hPa | - | - | - | - |
| 1777545964 | 13.33° C | 27% | 1029.8 hPa | - | - | - | - |
| 1777545064 | 13.33° C | 27% | 1029.9 hPa | - | - | - | - |
| 1777544164 | 13.33° C | 27% | 1030 hPa | - | - | - | - |
| 1777543264 | 13.33° C | 27% | 1030.1 hPa | - | - | - | - |
| 1777542364 | 12.78° C | 27% | 1030.1 hPa | - | - | - | - |
| 1777541464 | 12.78° C | 26% | 1030.3 hPa | - | - | - | - |
| 1777540564 | 11.67° C | 30% | 1030.6 hPa | - | - | - | - |
| 1777539664 | 12.22° C | 30% | 1030.5 hPa | - | - | - | - |
| 1777538764 | 11.67° C | 31% | 1030.7 hPa | - | - | - | - |
| 1777537864 | 12.22° C | 32% | 1030.7 hPa | - | - | - | - |
| 1777536963 | 10.56° C | 35% | 1030.7 hPa | - | - | - | - |
| 1777536063 | 11.11° C | 36% | 1030.7 hPa | - | - | - | - |
| 1777535163 | 10° C | 37% | 1030.6 hPa | - | - | - | - |
* Rain since midnight (hover to see other rain measurements)
** Current wind speed in m/s (hover to see current wind gust speed)